<?xml version="1.0" encoding="UTF-8" standalone="no" ?>
<gpx xmlns="http://www.topografix.com/GPX/1/1" xmlns:xsi="http://www.w3.org/2001/XMLSchema-instance" xsi:schemaLocation="http://www.topografix.com/GPX/1/1 http://www.topografix.com/GPX/1/1/gpx.xsd" version="1.1" creator="VisuGPX - https://www.visugpx.com">
  <metadata>
    <name>Joyeux Randonneurs à Villetoureix (4)</name>
    <desc><![CDATA[Randonnée accessible à tous. Il existe pratiquement toujours des possibilités  pour raccourcir le circuit à environ  6km. ]]></desc>
  </metadata>
  <trk>
    <name><![CDATA[Tracé 20 sept. 2016 13:53:57 Viĺletoureix avec Tocane]]></name>
    <trkseg>
      <trkpt lat="45.2611" lon="0.35931">
        <ele>61</ele>
        <time>2016-09-20T11:53:57Z</time>
      </trkpt>
      <trkpt lat="45.2611" lon="0.35931">
        <ele>61</ele>
        <time>2016-09-20T11:54:01Z</time>
      </trkpt>
      <trkpt lat="45.2611" lon="0.35931">
        <ele>61</ele>
        <time>2016-09-20T11:54:01Z</time>
      </trkpt>
      <trkpt lat="45.26105" lon="0.3593">
        <ele>58</ele>
        <time>2016-09-20T12:02:25Z</time>
      </trkpt>
      <trkpt lat="45.26099" lon="0.3592">
        <ele>59</ele>
        <time>2016-09-20T12:02:39Z</time>
      </trkpt>
      <trkpt lat="45.2609" lon="0.35906">
        <ele>60</ele>
        <time>2016-09-20T12:02:54Z</time>
      </trkpt>
      <trkpt lat="45.26082" lon="0.35893">
        <ele>60</ele>
        <time>2016-09-20T12:03:09Z</time>
      </trkpt>
      <trkpt lat="45.26093" lon="0.35892">
        <ele>59</ele>
        <time>2016-09-20T12:03:23Z</time>
      </trkpt>
      <trkpt lat="45.26103" lon="0.35902">
        <ele>67</ele>
        <time>2016-09-20T12:03:38Z</time>
      </trkpt>
      <trkpt lat="45.26116" lon="0.35916">
        <ele>66</ele>
        <time>2016-09-20T12:03:52Z</time>
      </trkpt>
      <trkpt lat="45.2613" lon="0.35935">
        <ele>66</ele>
        <time>2016-09-20T12:04:07Z</time>
      </trkpt>
      <trkpt lat="45.26142" lon="0.35953">
        <ele>65</ele>
        <time>2016-09-20T12:04:21Z</time>
      </trkpt>
      <trkpt lat="45.26154" lon="0.35972">
        <ele>64</ele>
        <time>2016-09-20T12:04:36Z</time>
      </trkpt>
      <trkpt lat="45.26164" lon="0.35991">
        <ele>65</ele>
        <time>2016-09-20T12:04:50Z</time>
      </trkpt>
      <trkpt lat="45.26175" lon="0.36009">
        <ele>66</ele>
        <time>2016-09-20T12:05:04Z</time>
      </trkpt>
      <trkpt lat="45.2619" lon="0.3602">
        <ele>67</ele>
        <time>2016-09-20T12:05:18Z</time>
      </trkpt>
      <trkpt lat="45.26202" lon="0.36037">
        <ele>65</ele>
        <time>2016-09-20T12:05:33Z</time>
      </trkpt>
      <trkpt lat="45.26208" lon="0.36058">
        <ele>64</ele>
        <time>2016-09-20T12:05:47Z</time>
      </trkpt>
      <trkpt lat="45.26212" lon="0.3608">
        <ele>66</ele>
        <time>2016-09-20T12:06:01Z</time>
      </trkpt>
      <trkpt lat="45.26215" lon="0.36101">
        <ele>69</ele>
        <time>2016-09-20T12:06:15Z</time>
      </trkpt>
      <trkpt lat="45.26225" lon="0.36122">
        <ele>69</ele>
        <time>2016-09-20T12:06:30Z</time>
      </trkpt>
      <trkpt lat="45.26234" lon="0.36139">
        <ele>73</ele>
        <time>2016-09-20T12:06:44Z</time>
      </trkpt>
      <trkpt lat="45.26244" lon="0.36159">
        <ele>75</ele>
        <time>2016-09-20T12:06:58Z</time>
      </trkpt>
      <trkpt lat="45.26254" lon="0.36178">
        <ele>76</ele>
        <time>2016-09-20T12:07:13Z</time>
      </trkpt>
      <trkpt lat="45.26263" lon="0.36197">
        <ele>77</ele>
        <time>2016-09-20T12:07:27Z</time>
      </trkpt>
      <trkpt lat="45.26274" lon="0.36216">
        <ele>75</ele>
        <time>2016-09-20T12:07:41Z</time>
      </trkpt>
      <trkpt lat="45.26281" lon="0.36235">
        <ele>75</ele>
        <time>2016-09-20T12:07:55Z</time>
      </trkpt>
      <trkpt lat="45.2629" lon="0.36255">
        <ele>79</ele>
        <time>2016-09-20T12:08:10Z</time>
      </trkpt>
      <trkpt lat="45.26297" lon="0.36274">
        <ele>83</ele>
        <time>2016-09-20T12:08:24Z</time>
      </trkpt>
      <trkpt lat="45.26302" lon="0.36285">
        <ele>86</ele>
        <time>2016-09-20T12:08:39Z</time>
      </trkpt>
      <trkpt lat="45.26306" lon="0.36309">
        <ele>80</ele>
        <time>2016-09-20T12:08:54Z</time>
      </trkpt>
      <trkpt lat="45.26322" lon="0.36318">
        <ele>82</ele>
        <time>2016-09-20T12:09:08Z</time>
      </trkpt>
      <trkpt lat="45.26334" lon="0.36324">
        <ele>82</ele>
        <time>2016-09-20T12:09:23Z</time>
      </trkpt>
      <trkpt lat="45.26339" lon="0.36334">
        <ele>84</ele>
        <time>2016-09-20T12:09:42Z</time>
      </trkpt>
      <trkpt lat="45.26347" lon="0.3634">
        <ele>83</ele>
        <time>2016-09-20T12:09:57Z</time>
      </trkpt>
      <trkpt lat="45.26362" lon="0.3633">
        <ele>82</ele>
        <time>2016-09-20T12:10:11Z</time>
      </trkpt>
      <trkpt lat="45.26378" lon="0.36323">
        <ele>84</ele>
        <time>2016-09-20T12:10:25Z</time>
      </trkpt>
      <trkpt lat="45.26387" lon="0.36343">
        <ele>87</ele>
        <time>2016-09-20T12:10:39Z</time>
      </trkpt>
      <trkpt lat="45.26395" lon="0.36358">
        <ele>89</ele>
        <time>2016-09-20T12:10:54Z</time>
      </trkpt>
      <trkpt lat="45.264" lon="0.36379">
        <ele>90</ele>
        <time>2016-09-20T12:11:09Z</time>
      </trkpt>
      <trkpt lat="45.26401" lon="0.36401">
        <ele>95</ele>
        <time>2016-09-20T12:11:23Z</time>
      </trkpt>
      <trkpt lat="45.26403" lon="0.3642">
        <ele>101</ele>
        <time>2016-09-20T12:11:38Z</time>
      </trkpt>
      <trkpt lat="45.26404" lon="0.36443">
        <ele>103</ele>
        <time>2016-09-20T12:11:52Z</time>
      </trkpt>
      <trkpt lat="45.2641" lon="0.36471">
        <ele>100</ele>
        <time>2016-09-20T12:12:07Z</time>
      </trkpt>
      <trkpt lat="45.26417" lon="0.36495">
        <ele>97</ele>
        <time>2016-09-20T12:12:21Z</time>
      </trkpt>
      <trkpt lat="45.26421" lon="0.36516">
        <ele>97</ele>
        <time>2016-09-20T12:12:36Z</time>
      </trkpt>
      <trkpt lat="45.26421" lon="0.36541">
        <ele>100</ele>
        <time>2016-09-20T12:12:50Z</time>
      </trkpt>
      <trkpt lat="45.26422" lon="0.36565">
        <ele>100</ele>
        <time>2016-09-20T12:13:04Z</time>
      </trkpt>
      <trkpt lat="45.26426" lon="0.36591">
        <ele>100</ele>
        <time>2016-09-20T12:13:19Z</time>
      </trkpt>
      <trkpt lat="45.26435" lon="0.36615">
        <ele>96</ele>
        <time>2016-09-20T12:13:34Z</time>
      </trkpt>
      <trkpt lat="45.26445" lon="0.36637">
        <ele>96</ele>
        <time>2016-09-20T12:13:49Z</time>
      </trkpt>
      <trkpt lat="45.26455" lon="0.36658">
        <ele>96</ele>
        <time>2016-09-20T12:14:03Z</time>
      </trkpt>
      <trkpt lat="45.26465" lon="0.36678">
        <ele>93</ele>
        <time>2016-09-20T12:14:18Z</time>
      </trkpt>
      <trkpt lat="45.26476" lon="0.36699">
        <ele>95</ele>
        <time>2016-09-20T12:14:32Z</time>
      </trkpt>
      <trkpt lat="45.26494" lon="0.36711">
        <ele>94</ele>
        <time>2016-09-20T12:14:47Z</time>
      </trkpt>
      <trkpt lat="45.26511" lon="0.36716">
        <ele>95</ele>
        <time>2016-09-20T12:15:01Z</time>
      </trkpt>
      <trkpt lat="45.26526" lon="0.36722">
        <ele>96</ele>
        <time>2016-09-20T12:15:15Z</time>
      </trkpt>
      <trkpt lat="45.26545" lon="0.36725">
        <ele>95</ele>
        <time>2016-09-20T12:15:30Z</time>
      </trkpt>
      <trkpt lat="45.26554" lon="0.36732">
        <ele>97</ele>
        <time>2016-09-20T12:15:44Z</time>
      </trkpt>
      <trkpt lat="45.26568" lon="0.36741">
        <ele>97</ele>
        <time>2016-09-20T12:15:58Z</time>
      </trkpt>
      <trkpt lat="45.26582" lon="0.36751">
        <ele>96</ele>
        <time>2016-09-20T12:16:13Z</time>
      </trkpt>
      <trkpt lat="45.26598" lon="0.36761">
        <ele>98</ele>
        <time>2016-09-20T12:16:28Z</time>
      </trkpt>
      <trkpt lat="45.26614" lon="0.36774">
        <ele>96</ele>
        <time>2016-09-20T12:16:42Z</time>
      </trkpt>
      <trkpt lat="45.26629" lon="0.36785">
        <ele>93</ele>
        <time>2016-09-20T12:16:57Z</time>
      </trkpt>
      <trkpt lat="45.26642" lon="0.36798">
        <ele>92</ele>
        <time>2016-09-20T12:17:11Z</time>
      </trkpt>
      <trkpt lat="45.26658" lon="0.36802">
        <ele>92</ele>
        <time>2016-09-20T12:17:25Z</time>
      </trkpt>
      <trkpt lat="45.26672" lon="0.36814">
        <ele>94</ele>
        <time>2016-09-20T12:17:39Z</time>
      </trkpt>
      <trkpt lat="45.26684" lon="0.36823">
        <ele>92</ele>
        <time>2016-09-20T12:17:53Z</time>
      </trkpt>
      <trkpt lat="45.26702" lon="0.36831">
        <ele>89</ele>
        <time>2016-09-20T12:18:08Z</time>
      </trkpt>
      <trkpt lat="45.26721" lon="0.36838">
        <ele>90</ele>
        <time>2016-09-20T12:18:23Z</time>
      </trkpt>
      <trkpt lat="45.26736" lon="0.36847">
        <ele>90</ele>
        <time>2016-09-20T12:18:37Z</time>
      </trkpt>
      <trkpt lat="45.26752" lon="0.36857">
        <ele>90</ele>
        <time>2016-09-20T12:18:52Z</time>
      </trkpt>
      <trkpt lat="45.26765" lon="0.36873">
        <ele>91</ele>
        <time>2016-09-20T12:19:07Z</time>
      </trkpt>
      <trkpt lat="45.26779" lon="0.36888">
        <ele>89</ele>
        <time>2016-09-20T12:19:21Z</time>
      </trkpt>
      <trkpt lat="45.26788" lon="0.36907">
        <ele>85</ele>
        <time>2016-09-20T12:19:36Z</time>
      </trkpt>
      <trkpt lat="45.26802" lon="0.36925">
        <ele>82</ele>
        <time>2016-09-20T12:19:51Z</time>
      </trkpt>
      <trkpt lat="45.26816" lon="0.3694">
        <ele>83</ele>
        <time>2016-09-20T12:20:06Z</time>
      </trkpt>
      <trkpt lat="45.26827" lon="0.36952">
        <ele>82</ele>
        <time>2016-09-20T12:20:20Z</time>
      </trkpt>
      <trkpt lat="45.26843" lon="0.36967">
        <ele>83</ele>
        <time>2016-09-20T12:20:34Z</time>
      </trkpt>
      <trkpt lat="45.26858" lon="0.36976">
        <ele>82</ele>
        <time>2016-09-20T12:20:48Z</time>
      </trkpt>
      <trkpt lat="45.26871" lon="0.36988">
        <ele>80</ele>
        <time>2016-09-20T12:21:03Z</time>
      </trkpt>
      <trkpt lat="45.26884" lon="0.37002">
        <ele>82</ele>
        <time>2016-09-20T12:21:17Z</time>
      </trkpt>
      <trkpt lat="45.26898" lon="0.37012">
        <ele>81</ele>
        <time>2016-09-20T12:21:31Z</time>
      </trkpt>
      <trkpt lat="45.26911" lon="0.3703">
        <ele>82</ele>
        <time>2016-09-20T12:21:45Z</time>
      </trkpt>
      <trkpt lat="45.26922" lon="0.37046">
        <ele>84</ele>
        <time>2016-09-20T12:22:00Z</time>
      </trkpt>
      <trkpt lat="45.26943" lon="0.37055">
        <ele>78</ele>
        <time>2016-09-20T12:22:14Z</time>
      </trkpt>
      <trkpt lat="45.26952" lon="0.37066">
        <ele>80</ele>
        <time>2016-09-20T12:22:28Z</time>
      </trkpt>
      <trkpt lat="45.26967" lon="0.37082">
        <ele>78</ele>
        <time>2016-09-20T12:22:43Z</time>
      </trkpt>
      <trkpt lat="45.2698" lon="0.37095">
        <ele>82</ele>
        <time>2016-09-20T12:22:58Z</time>
      </trkpt>
      <trkpt lat="45.26991" lon="0.37113">
        <ele>81</ele>
        <time>2016-09-20T12:23:12Z</time>
      </trkpt>
      <trkpt lat="45.27002" lon="0.37129">
        <ele>81</ele>
        <time>2016-09-20T12:23:27Z</time>
      </trkpt>
      <trkpt lat="45.27004" lon="0.37141">
        <ele>83</ele>
        <time>2016-09-20T12:23:58Z</time>
      </trkpt>
      <trkpt lat="45.27004" lon="0.37154">
        <ele>86</ele>
        <time>2016-09-20T12:24:14Z</time>
      </trkpt>
      <trkpt lat="45.27007" lon="0.37171">
        <ele>85</ele>
        <time>2016-09-20T12:24:29Z</time>
      </trkpt>
      <trkpt lat="45.27011" lon="0.37196">
        <ele>81</ele>
        <time>2016-09-20T12:24:43Z</time>
      </trkpt>
      <trkpt lat="45.27016" lon="0.3722">
        <ele>80</ele>
        <time>2016-09-20T12:24:57Z</time>
      </trkpt>
      <trkpt lat="45.27022" lon="0.37236">
        <ele>85</ele>
        <time>2016-09-20T12:25:11Z</time>
      </trkpt>
      <trkpt lat="45.27033" lon="0.37253">
        <ele>85</ele>
        <time>2016-09-20T12:25:25Z</time>
      </trkpt>
      <trkpt lat="45.27045" lon="0.37266">
        <ele>87</ele>
        <time>2016-09-20T12:25:40Z</time>
      </trkpt>
      <trkpt lat="45.27054" lon="0.37281">
        <ele>85</ele>
        <time>2016-09-20T12:25:55Z</time>
      </trkpt>
      <trkpt lat="45.27061" lon="0.37298">
        <ele>90</ele>
        <time>2016-09-20T12:26:09Z</time>
      </trkpt>
      <trkpt lat="45.27075" lon="0.37313">
        <ele>89</ele>
        <time>2016-09-20T12:26:23Z</time>
      </trkpt>
      <trkpt lat="45.27084" lon="0.37322">
        <ele>95</ele>
        <time>2016-09-20T12:26:37Z</time>
      </trkpt>
      <trkpt lat="45.27098" lon="0.37332">
        <ele>97</ele>
        <time>2016-09-20T12:26:52Z</time>
      </trkpt>
      <trkpt lat="45.2711" lon="0.37342">
        <ele>99</ele>
        <time>2016-09-20T12:27:06Z</time>
      </trkpt>
      <trkpt lat="45.27126" lon="0.37348">
        <ele>104</ele>
        <time>2016-09-20T12:27:20Z</time>
      </trkpt>
      <trkpt lat="45.27141" lon="0.37359">
        <ele>98</ele>
        <time>2016-09-20T12:27:34Z</time>
      </trkpt>
      <trkpt lat="45.27152" lon="0.37375">
        <ele>100</ele>
        <time>2016-09-20T12:27:48Z</time>
      </trkpt>
      <trkpt lat="45.2716" lon="0.37386">
        <ele>106</ele>
        <time>2016-09-20T12:28:03Z</time>
      </trkpt>
      <trkpt lat="45.27152" lon="0.37391">
        <ele>107</ele>
        <time>2016-09-20T12:28:38Z</time>
      </trkpt>
      <trkpt lat="45.27138" lon="0.37392">
        <ele>106</ele>
        <time>2016-09-20T12:28:52Z</time>
      </trkpt>
      <trkpt lat="45.27131" lon="0.37414">
        <ele>106</ele>
        <time>2016-09-20T12:29:06Z</time>
      </trkpt>
      <trkpt lat="45.27129" lon="0.3743">
        <ele>112</ele>
        <time>2016-09-20T12:29:20Z</time>
      </trkpt>
      <trkpt lat="45.27132" lon="0.37449">
        <ele>111</ele>
        <time>2016-09-20T12:29:35Z</time>
      </trkpt>
      <trkpt lat="45.27134" lon="0.37467">
        <ele>120</ele>
        <time>2016-09-20T12:29:50Z</time>
      </trkpt>
      <trkpt lat="45.27135" lon="0.37488">
        <ele>122</ele>
        <time>2016-09-20T12:30:04Z</time>
      </trkpt>
      <trkpt lat="45.27135" lon="0.37505">
        <ele>126</ele>
        <time>2016-09-20T12:30:18Z</time>
      </trkpt>
      <trkpt lat="45.27135" lon="0.3753">
        <ele>129</ele>
        <time>2016-09-20T12:30:33Z</time>
      </trkpt>
      <trkpt lat="45.2714" lon="0.3755">
        <ele>132</ele>
        <time>2016-09-20T12:30:47Z</time>
      </trkpt>
      <trkpt lat="45.27146" lon="0.37575">
        <ele>127</ele>
        <time>2016-09-20T12:31:02Z</time>
      </trkpt>
      <trkpt lat="45.27152" lon="0.37593">
        <ele>124</ele>
        <time>2016-09-20T12:31:16Z</time>
      </trkpt>
      <trkpt lat="45.27151" lon="0.37612">
        <ele>128</ele>
        <time>2016-09-20T12:31:31Z</time>
      </trkpt>
      <trkpt lat="45.2715" lon="0.37633">
        <ele>130</ele>
        <time>2016-09-20T12:31:45Z</time>
      </trkpt>
      <trkpt lat="45.27151" lon="0.37652">
        <ele>125</ele>
        <time>2016-09-20T12:31:59Z</time>
      </trkpt>
      <trkpt lat="45.27151" lon="0.37664">
        <ele>125</ele>
        <time>2016-09-20T12:34:46Z</time>
      </trkpt>
      <trkpt lat="45.27164" lon="0.37672">
        <ele>125</ele>
        <time>2016-09-20T12:35:01Z</time>
      </trkpt>
      <trkpt lat="45.27176" lon="0.37683">
        <ele>125</ele>
        <time>2016-09-20T12:35:15Z</time>
      </trkpt>
      <trkpt lat="45.27188" lon="0.377">
        <ele>127</ele>
        <time>2016-09-20T12:35:30Z</time>
      </trkpt>
      <trkpt lat="45.27199" lon="0.37721">
        <ele>127</ele>
        <time>2016-09-20T12:35:44Z</time>
      </trkpt>
      <trkpt lat="45.27208" lon="0.37744">
        <ele>124</ele>
        <time>2016-09-20T12:35:59Z</time>
      </trkpt>
      <trkpt lat="45.27218" lon="0.37768">
        <ele>123</ele>
        <time>2016-09-20T12:36:13Z</time>
      </trkpt>
      <trkpt lat="45.27227" lon="0.37793">
        <ele>122</ele>
        <time>2016-09-20T12:36:27Z</time>
      </trkpt>
      <trkpt lat="45.27235" lon="0.37817">
        <ele>122</ele>
        <time>2016-09-20T12:36:41Z</time>
      </trkpt>
      <trkpt lat="45.27248" lon="0.37841">
        <ele>121</ele>
        <time>2016-09-20T12:36:56Z</time>
      </trkpt>
      <trkpt lat="45.27253" lon="0.37863">
        <ele>122</ele>
        <time>2016-09-20T12:37:10Z</time>
      </trkpt>
      <trkpt lat="45.27265" lon="0.37878">
        <ele>128</ele>
        <time>2016-09-20T12:37:25Z</time>
      </trkpt>
      <trkpt lat="45.27284" lon="0.37876">
        <ele>130</ele>
        <time>2016-09-20T12:37:39Z</time>
      </trkpt>
      <trkpt lat="45.27303" lon="0.37879">
        <ele>130</ele>
        <time>2016-09-20T12:37:54Z</time>
      </trkpt>
      <trkpt lat="45.27322" lon="0.37877">
        <ele>131</ele>
        <time>2016-09-20T12:38:08Z</time>
      </trkpt>
      <trkpt lat="45.2734" lon="0.37878">
        <ele>135</ele>
        <time>2016-09-20T12:38:22Z</time>
      </trkpt>
      <trkpt lat="45.27362" lon="0.37882">
        <ele>133</ele>
        <time>2016-09-20T12:38:37Z</time>
      </trkpt>
      <trkpt lat="45.2738" lon="0.37886">
        <ele>135</ele>
        <time>2016-09-20T12:38:51Z</time>
      </trkpt>
      <trkpt lat="45.27403" lon="0.37884">
        <ele>135</ele>
        <time>2016-09-20T12:39:06Z</time>
      </trkpt>
      <trkpt lat="45.27421" lon="0.37885">
        <ele>132</ele>
        <time>2016-09-20T12:39:20Z</time>
      </trkpt>
      <trkpt lat="45.2744" lon="0.37889">
        <ele>133</ele>
        <time>2016-09-20T12:39:35Z</time>
      </trkpt>
      <trkpt lat="45.27459" lon="0.37893">
        <ele>133</ele>
        <time>2016-09-20T12:39:49Z</time>
      </trkpt>
      <trkpt lat="45.27477" lon="0.37897">
        <ele>134</ele>
        <time>2016-09-20T12:40:03Z</time>
      </trkpt>
      <trkpt lat="45.27496" lon="0.37898">
        <ele>133</ele>
        <time>2016-09-20T12:40:18Z</time>
      </trkpt>
      <trkpt lat="45.27517" lon="0.37901">
        <ele>132</ele>
        <time>2016-09-20T12:40:33Z</time>
      </trkpt>
      <trkpt lat="45.27535" lon="0.37904">
        <ele>133</ele>
        <time>2016-09-20T12:40:47Z</time>
      </trkpt>
      <trkpt lat="45.27554" lon="0.37908">
        <ele>132</ele>
        <time>2016-09-20T12:41:01Z</time>
      </trkpt>
      <trkpt lat="45.27572" lon="0.37914">
        <ele>133</ele>
        <time>2016-09-20T12:41:15Z</time>
      </trkpt>
      <trkpt lat="45.27593" lon="0.37919">
        <ele>131</ele>
        <time>2016-09-20T12:41:30Z</time>
      </trkpt>
      <trkpt lat="45.27609" lon="0.37922">
        <ele>131</ele>
        <time>2016-09-20T12:41:44Z</time>
      </trkpt>
      <trkpt lat="45.27618" lon="0.37925">
        <ele>130</ele>
        <time>2016-09-20T12:45:19Z</time>
      </trkpt>
      <trkpt lat="45.27633" lon="0.37931">
        <ele>131</ele>
        <time>2016-09-20T12:45:34Z</time>
      </trkpt>
      <trkpt lat="45.2765" lon="0.37933">
        <ele>131</ele>
        <time>2016-09-20T12:45:49Z</time>
      </trkpt>
      <trkpt lat="45.27667" lon="0.37938">
        <ele>131</ele>
        <time>2016-09-20T12:46:03Z</time>
      </trkpt>
      <trkpt lat="45.27685" lon="0.37941">
        <ele>131</ele>
        <time>2016-09-20T12:46:17Z</time>
      </trkpt>
      <trkpt lat="45.27705" lon="0.37943">
        <ele>131</ele>
        <time>2016-09-20T12:46:31Z</time>
      </trkpt>
      <trkpt lat="45.27726" lon="0.37946">
        <ele>131</ele>
        <time>2016-09-20T12:46:46Z</time>
      </trkpt>
      <trkpt lat="45.27744" lon="0.37946">
        <ele>128</ele>
        <time>2016-09-20T12:47:00Z</time>
      </trkpt>
      <trkpt lat="45.27765" lon="0.37952">
        <ele>128</ele>
        <time>2016-09-20T12:47:15Z</time>
      </trkpt>
      <trkpt lat="45.27785" lon="0.3796">
        <ele>128</ele>
        <time>2016-09-20T12:47:30Z</time>
      </trkpt>
      <trkpt lat="45.27799" lon="0.37971">
        <ele>129</ele>
        <time>2016-09-20T12:47:44Z</time>
      </trkpt>
      <trkpt lat="45.27816" lon="0.37986">
        <ele>131</ele>
        <time>2016-09-20T12:47:59Z</time>
      </trkpt>
      <trkpt lat="45.27831" lon="0.38">
        <ele>131</ele>
        <time>2016-09-20T12:48:13Z</time>
      </trkpt>
      <trkpt lat="45.27845" lon="0.38017">
        <ele>131</ele>
        <time>2016-09-20T12:48:27Z</time>
      </trkpt>
      <trkpt lat="45.2786" lon="0.38034">
        <ele>132</ele>
        <time>2016-09-20T12:48:42Z</time>
      </trkpt>
      <trkpt lat="45.27875" lon="0.38051">
        <ele>133</ele>
        <time>2016-09-20T12:48:56Z</time>
      </trkpt>
      <trkpt lat="45.27894" lon="0.38063">
        <ele>132</ele>
        <time>2016-09-20T12:49:11Z</time>
      </trkpt>
      <trkpt lat="45.27912" lon="0.3807">
        <ele>132</ele>
        <time>2016-09-20T12:49:25Z</time>
      </trkpt>
      <trkpt lat="45.27932" lon="0.38076">
        <ele>130</ele>
        <time>2016-09-20T12:49:40Z</time>
      </trkpt>
      <trkpt lat="45.2795" lon="0.38079">
        <ele>128</ele>
        <time>2016-09-20T12:49:54Z</time>
      </trkpt>
      <trkpt lat="45.27969" lon="0.38084">
        <ele>127</ele>
        <time>2016-09-20T12:50:09Z</time>
      </trkpt>
      <trkpt lat="45.27988" lon="0.38087">
        <ele>127</ele>
        <time>2016-09-20T12:50:23Z</time>
      </trkpt>
      <trkpt lat="45.28007" lon="0.3809">
        <ele>126</ele>
        <time>2016-09-20T12:50:37Z</time>
      </trkpt>
      <trkpt lat="45.28027" lon="0.38094">
        <ele>127</ele>
        <time>2016-09-20T12:50:52Z</time>
      </trkpt>
      <trkpt lat="45.28045" lon="0.38097">
        <ele>127</ele>
        <time>2016-09-20T12:51:06Z</time>
      </trkpt>
      <trkpt lat="45.28065" lon="0.381">
        <ele>126</ele>
        <time>2016-09-20T12:51:21Z</time>
      </trkpt>
      <trkpt lat="45.28084" lon="0.38104">
        <ele>127</ele>
        <time>2016-09-20T12:51:35Z</time>
      </trkpt>
      <trkpt lat="45.28102" lon="0.38103">
        <ele>126</ele>
        <time>2016-09-20T12:51:49Z</time>
      </trkpt>
      <trkpt lat="45.2812" lon="0.38106">
        <ele>127</ele>
        <time>2016-09-20T12:52:03Z</time>
      </trkpt>
      <trkpt lat="45.28138" lon="0.3811">
        <ele>128</ele>
        <time>2016-09-20T12:52:17Z</time>
      </trkpt>
      <trkpt lat="45.28158" lon="0.38112">
        <ele>129</ele>
        <time>2016-09-20T12:52:32Z</time>
      </trkpt>
      <trkpt lat="45.28177" lon="0.38115">
        <ele>129</ele>
        <time>2016-09-20T12:52:46Z</time>
      </trkpt>
      <trkpt lat="45.28197" lon="0.38118">
        <ele>130</ele>
        <time>2016-09-20T12:53:00Z</time>
      </trkpt>
      <trkpt lat="45.28213" lon="0.38122">
        <ele>131</ele>
        <time>2016-09-20T12:53:14Z</time>
      </trkpt>
      <trkpt lat="45.28232" lon="0.3813">
        <ele>133</ele>
        <time>2016-09-20T12:53:29Z</time>
      </trkpt>
      <trkpt lat="45.28248" lon="0.38143">
        <ele>134</ele>
        <time>2016-09-20T12:53:44Z</time>
      </trkpt>
      <trkpt lat="45.28262" lon="0.38158">
        <ele>135</ele>
        <time>2016-09-20T12:53:58Z</time>
      </trkpt>
      <trkpt lat="45.28278" lon="0.38172">
        <ele>135</ele>
        <time>2016-09-20T12:54:12Z</time>
      </trkpt>
      <trkpt lat="45.28297" lon="0.38182">
        <ele>136</ele>
        <time>2016-09-20T12:54:27Z</time>
      </trkpt>
      <trkpt lat="45.28316" lon="0.38185">
        <ele>137</ele>
        <time>2016-09-20T12:54:41Z</time>
      </trkpt>
      <trkpt lat="45.28336" lon="0.38186">
        <ele>137</ele>
        <time>2016-09-20T12:54:56Z</time>
      </trkpt>
      <trkpt lat="45.28355" lon="0.38183">
        <ele>139</ele>
        <time>2016-09-20T12:55:10Z</time>
      </trkpt>
      <trkpt lat="45.28374" lon="0.38179">
        <ele>141</ele>
        <time>2016-09-20T12:55:24Z</time>
      </trkpt>
      <trkpt lat="45.28392" lon="0.38174">
        <ele>142</ele>
        <time>2016-09-20T12:55:38Z</time>
      </trkpt>
      <trkpt lat="45.28412" lon="0.38168">
        <ele>141</ele>
        <time>2016-09-20T12:55:53Z</time>
      </trkpt>
      <trkpt lat="45.28432" lon="0.38164">
        <ele>140</ele>
        <time>2016-09-20T12:56:07Z</time>
      </trkpt>
      <trkpt lat="45.28451" lon="0.38161">
        <ele>137</ele>
        <time>2016-09-20T12:56:21Z</time>
      </trkpt>
      <trkpt lat="45.28468" lon="0.38166">
        <ele>138</ele>
        <time>2016-09-20T12:56:35Z</time>
      </trkpt>
      <trkpt lat="45.28488" lon="0.38169">
        <ele>137</ele>
        <time>2016-09-20T12:56:50Z</time>
      </trkpt>
      <trkpt lat="45.28508" lon="0.38173">
        <ele>136</ele>
        <time>2016-09-20T12:57:05Z</time>
      </trkpt>
      <trkpt lat="45.28527" lon="0.38175">
        <ele>136</ele>
        <time>2016-09-20T12:57:19Z</time>
      </trkpt>
      <trkpt lat="45.28548" lon="0.3818">
        <ele>137</ele>
        <time>2016-09-20T12:57:34Z</time>
      </trkpt>
      <trkpt lat="45.28568" lon="0.38182">
        <ele>137</ele>
        <time>2016-09-20T12:57:49Z</time>
      </trkpt>
      <trkpt lat="45.28588" lon="0.3818">
        <ele>138</ele>
        <time>2016-09-20T12:58:03Z</time>
      </trkpt>
      <trkpt lat="45.28606" lon="0.38182">
        <ele>138</ele>
        <time>2016-09-20T12:58:17Z</time>
      </trkpt>
      <trkpt lat="45.28625" lon="0.38185">
        <ele>136</ele>
        <time>2016-09-20T12:58:31Z</time>
      </trkpt>
      <trkpt lat="45.28645" lon="0.38192">
        <ele>137</ele>
        <time>2016-09-20T12:58:45Z</time>
      </trkpt>
      <trkpt lat="45.28663" lon="0.38196">
        <ele>137</ele>
        <time>2016-09-20T12:58:59Z</time>
      </trkpt>
      <trkpt lat="45.28683" lon="0.38199">
        <ele>136</ele>
        <time>2016-09-20T12:59:13Z</time>
      </trkpt>
      <trkpt lat="45.287" lon="0.38203">
        <ele>137</ele>
        <time>2016-09-20T12:59:27Z</time>
      </trkpt>
      <trkpt lat="45.28719" lon="0.38209">
        <ele>138</ele>
        <time>2016-09-20T12:59:41Z</time>
      </trkpt>
      <trkpt lat="45.28735" lon="0.38215">
        <ele>138</ele>
        <time>2016-09-20T12:59:56Z</time>
      </trkpt>
      <trkpt lat="45.28752" lon="0.38223">
        <ele>139</ele>
        <time>2016-09-20T13:00:10Z</time>
      </trkpt>
      <trkpt lat="45.2877" lon="0.38234">
        <ele>140</ele>
        <time>2016-09-20T13:00:25Z</time>
      </trkpt>
      <trkpt lat="45.28786" lon="0.38242">
        <ele>139</ele>
        <time>2016-09-20T13:00:39Z</time>
      </trkpt>
      <trkpt lat="45.28805" lon="0.38251">
        <ele>139</ele>
        <time>2016-09-20T13:00:54Z</time>
      </trkpt>
      <trkpt lat="45.28819" lon="0.38262">
        <ele>141</ele>
        <time>2016-09-20T13:01:09Z</time>
      </trkpt>
      <trkpt lat="45.28829" lon="0.38266">
        <ele>141</ele>
        <time>2016-09-20T13:01:23Z</time>
      </trkpt>
      <trkpt lat="45.28838" lon="0.38267">
        <ele>140</ele>
        <time>2016-09-20T13:06:16Z</time>
      </trkpt>
      <trkpt lat="45.28854" lon="0.38273">
        <ele>139</ele>
        <time>2016-09-20T13:06:30Z</time>
      </trkpt>
      <trkpt lat="45.28868" lon="0.38281">
        <ele>138</ele>
        <time>2016-09-20T13:06:44Z</time>
      </trkpt>
      <trkpt lat="45.28881" lon="0.38289">
        <ele>138</ele>
        <time>2016-09-20T13:06:58Z</time>
      </trkpt>
      <trkpt lat="45.28897" lon="0.38297">
        <ele>138</ele>
        <time>2016-09-20T13:07:12Z</time>
      </trkpt>
      <trkpt lat="45.28914" lon="0.38304">
        <ele>138</ele>
        <time>2016-09-20T13:07:27Z</time>
      </trkpt>
      <trkpt lat="45.28932" lon="0.38312">
        <ele>139</ele>
        <time>2016-09-20T13:07:41Z</time>
      </trkpt>
      <trkpt lat="45.2895" lon="0.38319">
        <ele>139</ele>
        <time>2016-09-20T13:07:55Z</time>
      </trkpt>
      <trkpt lat="45.28965" lon="0.38327">
        <ele>140</ele>
        <time>2016-09-20T13:08:09Z</time>
      </trkpt>
      <trkpt lat="45.28983" lon="0.38336">
        <ele>140</ele>
        <time>2016-09-20T13:08:24Z</time>
      </trkpt>
      <trkpt lat="45.28998" lon="0.38324">
        <ele>140</ele>
        <time>2016-09-20T13:08:38Z</time>
      </trkpt>
      <trkpt lat="45.29011" lon="0.38316">
        <ele>142</ele>
        <time>2016-09-20T13:08:53Z</time>
      </trkpt>
      <trkpt lat="45.29024" lon="0.38304">
        <ele>148</ele>
        <time>2016-09-20T13:09:08Z</time>
      </trkpt>
      <trkpt lat="45.29039" lon="0.3829">
        <ele>145</ele>
        <time>2016-09-20T13:09:22Z</time>
      </trkpt>
      <trkpt lat="45.2905" lon="0.38278">
        <ele>148</ele>
        <time>2016-09-20T13:09:37Z</time>
      </trkpt>
      <trkpt lat="45.29061" lon="0.38264">
        <ele>150</ele>
        <time>2016-09-20T13:09:52Z</time>
      </trkpt>
      <trkpt lat="45.29076" lon="0.38246">
        <ele>140</ele>
        <time>2016-09-20T13:10:06Z</time>
      </trkpt>
      <trkpt lat="45.29086" lon="0.38236">
        <ele>136</ele>
        <time>2016-09-20T13:10:20Z</time>
      </trkpt>
      <trkpt lat="45.29099" lon="0.38217">
        <ele>134</ele>
        <time>2016-09-20T13:10:34Z</time>
      </trkpt>
      <trkpt lat="45.29115" lon="0.38204">
        <ele>134</ele>
        <time>2016-09-20T13:10:49Z</time>
      </trkpt>
      <trkpt lat="45.2913" lon="0.38191">
        <ele>135</ele>
        <time>2016-09-20T13:11:03Z</time>
      </trkpt>
      <trkpt lat="45.29145" lon="0.3818">
        <ele>140</ele>
        <time>2016-09-20T13:11:18Z</time>
      </trkpt>
      <trkpt lat="45.29161" lon="0.38161">
        <ele>134</ele>
        <time>2016-09-20T13:11:32Z</time>
      </trkpt>
      <trkpt lat="45.29175" lon="0.38148">
        <ele>136</ele>
        <time>2016-09-20T13:11:47Z</time>
      </trkpt>
      <trkpt lat="45.29187" lon="0.38134">
        <ele>135</ele>
        <time>2016-09-20T13:12:01Z</time>
      </trkpt>
      <trkpt lat="45.292" lon="0.38121">
        <ele>136</ele>
        <time>2016-09-20T13:12:15Z</time>
      </trkpt>
      <trkpt lat="45.29213" lon="0.38107">
        <ele>134</ele>
        <time>2016-09-20T13:12:30Z</time>
      </trkpt>
      <trkpt lat="45.29226" lon="0.38092">
        <ele>132</ele>
        <time>2016-09-20T13:12:44Z</time>
      </trkpt>
      <trkpt lat="45.29238" lon="0.3807">
        <ele>123</ele>
        <time>2016-09-20T13:12:58Z</time>
      </trkpt>
      <trkpt lat="45.29251" lon="0.38055">
        <ele>120</ele>
        <time>2016-09-20T13:13:13Z</time>
      </trkpt>
      <trkpt lat="45.29263" lon="0.38041">
        <ele>119</ele>
        <time>2016-09-20T13:13:28Z</time>
      </trkpt>
      <trkpt lat="45.29278" lon="0.38031">
        <ele>116</ele>
        <time>2016-09-20T13:13:42Z</time>
      </trkpt>
      <trkpt lat="45.29292" lon="0.38018">
        <ele>112</ele>
        <time>2016-09-20T13:13:57Z</time>
      </trkpt>
      <trkpt lat="45.29307" lon="0.38008">
        <ele>115</ele>
        <time>2016-09-20T13:14:12Z</time>
      </trkpt>
      <trkpt lat="45.2932" lon="0.37991">
        <ele>113</ele>
        <time>2016-09-20T13:14:26Z</time>
      </trkpt>
      <trkpt lat="45.29331" lon="0.37971">
        <ele>109</ele>
        <time>2016-09-20T13:14:40Z</time>
      </trkpt>
      <trkpt lat="45.29341" lon="0.37949">
        <ele>110</ele>
        <time>2016-09-20T13:14:55Z</time>
      </trkpt>
      <trkpt lat="45.2935" lon="0.37927">
        <ele>107</ele>
        <time>2016-09-20T13:15:09Z</time>
      </trkpt>
      <trkpt lat="45.29364" lon="0.37911">
        <ele>108</ele>
        <time>2016-09-20T13:15:23Z</time>
      </trkpt>
      <trkpt lat="45.29377" lon="0.37898">
        <ele>110</ele>
        <time>2016-09-20T13:15:38Z</time>
      </trkpt>
      <trkpt lat="45.29389" lon="0.37885">
        <ele>114</ele>
        <time>2016-09-20T13:15:52Z</time>
      </trkpt>
      <trkpt lat="45.29402" lon="0.3787">
        <ele>117</ele>
        <time>2016-09-20T13:16:07Z</time>
      </trkpt>
      <trkpt lat="45.29413" lon="0.37857">
        <ele>120</ele>
        <time>2016-09-20T13:16:21Z</time>
      </trkpt>
      <trkpt lat="45.29423" lon="0.37843">
        <ele>124</ele>
        <time>2016-09-20T13:16:36Z</time>
      </trkpt>
      <trkpt lat="45.29432" lon="0.37832">
        <ele>126</ele>
        <time>2016-09-20T13:16:50Z</time>
      </trkpt>
      <trkpt lat="45.29441" lon="0.3782">
        <ele>129</ele>
        <time>2016-09-20T13:17:04Z</time>
      </trkpt>
      <trkpt lat="45.29452" lon="0.37805">
        <ele>132</ele>
        <time>2016-09-20T13:17:18Z</time>
      </trkpt>
      <trkpt lat="45.29461" lon="0.3779">
        <ele>134</ele>
        <time>2016-09-20T13:17:33Z</time>
      </trkpt>
      <trkpt lat="45.29464" lon="0.37773">
        <ele>131</ele>
        <time>2016-09-20T13:17:48Z</time>
      </trkpt>
      <trkpt lat="45.29463" lon="0.37762">
        <ele>119</ele>
        <time>2016-09-20T13:19:32Z</time>
      </trkpt>
      <trkpt lat="45.29458" lon="0.3775">
        <ele>119</ele>
        <time>2016-09-20T13:19:46Z</time>
      </trkpt>
      <trkpt lat="45.29458" lon="0.37731">
        <ele>119</ele>
        <time>2016-09-20T13:20:00Z</time>
      </trkpt>
      <trkpt lat="45.29461" lon="0.37715">
        <ele>115</ele>
        <time>2016-09-20T13:20:14Z</time>
      </trkpt>
      <trkpt lat="45.29462" lon="0.37696">
        <ele>114</ele>
        <time>2016-09-20T13:20:29Z</time>
      </trkpt>
      <trkpt lat="45.29467" lon="0.37679">
        <ele>113</ele>
        <time>2016-09-20T13:20:44Z</time>
      </trkpt>
      <trkpt lat="45.29473" lon="0.37658">
        <ele>112</ele>
        <time>2016-09-20T13:20:59Z</time>
      </trkpt>
      <trkpt lat="45.29476" lon="0.37636">
        <ele>104</ele>
        <time>2016-09-20T13:21:13Z</time>
      </trkpt>
      <trkpt lat="45.2947" lon="0.37624">
        <ele>105</ele>
        <time>2016-09-20T13:21:28Z</time>
      </trkpt>
      <trkpt lat="45.29456" lon="0.37615">
        <ele>104</ele>
        <time>2016-09-20T13:21:42Z</time>
      </trkpt>
      <trkpt lat="45.29444" lon="0.37604">
        <ele>107</ele>
        <time>2016-09-20T13:21:57Z</time>
      </trkpt>
      <trkpt lat="45.29434" lon="0.37595">
        <ele>110</ele>
        <time>2016-09-20T13:22:11Z</time>
      </trkpt>
      <trkpt lat="45.29426" lon="0.37578">
        <ele>109</ele>
        <time>2016-09-20T13:22:26Z</time>
      </trkpt>
      <trkpt lat="45.29428" lon="0.37555">
        <ele>111</ele>
        <time>2016-09-20T13:22:40Z</time>
      </trkpt>
      <trkpt lat="45.29431" lon="0.37533">
        <ele>111</ele>
        <time>2016-09-20T13:22:54Z</time>
      </trkpt>
      <trkpt lat="45.29422" lon="0.37517">
        <ele>109</ele>
        <time>2016-09-20T13:23:09Z</time>
      </trkpt>
      <trkpt lat="45.29416" lon="0.37502">
        <ele>111</ele>
        <time>2016-09-20T13:23:23Z</time>
      </trkpt>
      <trkpt lat="45.29407" lon="0.37497">
        <ele>113</ele>
        <time>2016-09-20T13:23:38Z</time>
      </trkpt>
      <trkpt lat="45.29388" lon="0.3749">
        <ele>110</ele>
        <time>2016-09-20T13:23:53Z</time>
      </trkpt>
      <trkpt lat="45.29377" lon="0.37489">
        <ele>112</ele>
        <time>2016-09-20T13:24:07Z</time>
      </trkpt>
      <trkpt lat="45.29364" lon="0.37481">
        <ele>117</ele>
        <time>2016-09-20T13:24:21Z</time>
      </trkpt>
      <trkpt lat="45.29355" lon="0.37473">
        <ele>120</ele>
        <time>2016-09-20T13:24:36Z</time>
      </trkpt>
      <trkpt lat="45.29347" lon="0.37466">
        <ele>123</ele>
        <time>2016-09-20T13:24:50Z</time>
      </trkpt>
      <trkpt lat="45.29337" lon="0.37461">
        <ele>127</ele>
        <time>2016-09-20T13:25:04Z</time>
      </trkpt>
      <trkpt lat="45.29329" lon="0.37454">
        <ele>134</ele>
        <time>2016-09-20T13:25:19Z</time>
      </trkpt>
      <trkpt lat="45.29314" lon="0.37451">
        <ele>136</ele>
        <time>2016-09-20T13:25:33Z</time>
      </trkpt>
      <trkpt lat="45.29297" lon="0.37439">
        <ele>129</ele>
        <time>2016-09-20T13:25:48Z</time>
      </trkpt>
      <trkpt lat="45.29284" lon="0.37429">
        <ele>129</ele>
        <time>2016-09-20T13:26:02Z</time>
      </trkpt>
      <trkpt lat="45.2927" lon="0.37424">
        <ele>130</ele>
        <time>2016-09-20T13:26:16Z</time>
      </trkpt>
      <trkpt lat="45.2926" lon="0.37422">
        <ele>134</ele>
        <time>2016-09-20T13:26:30Z</time>
      </trkpt>
      <trkpt lat="45.29244" lon="0.37412">
        <ele>133</ele>
        <time>2016-09-20T13:26:45Z</time>
      </trkpt>
      <trkpt lat="45.29229" lon="0.37393">
        <ele>133</ele>
        <time>2016-09-20T13:27:00Z</time>
      </trkpt>
      <trkpt lat="45.29215" lon="0.37381">
        <ele>132</ele>
        <time>2016-09-20T13:27:14Z</time>
      </trkpt>
      <trkpt lat="45.29194" lon="0.37372">
        <ele>132</ele>
        <time>2016-09-20T13:27:28Z</time>
      </trkpt>
      <trkpt lat="45.29175" lon="0.37378">
        <ele>129</ele>
        <time>2016-09-20T13:27:42Z</time>
      </trkpt>
      <trkpt lat="45.29165" lon="0.37389">
        <ele>127</ele>
        <time>2016-09-20T13:27:56Z</time>
      </trkpt>
      <trkpt lat="45.29158" lon="0.37408">
        <ele>128</ele>
        <time>2016-09-20T13:28:10Z</time>
      </trkpt>
      <trkpt lat="45.29155" lon="0.37424">
        <ele>129</ele>
        <time>2016-09-20T13:28:25Z</time>
      </trkpt>
      <trkpt lat="45.29149" lon="0.37444">
        <ele>130</ele>
        <time>2016-09-20T13:28:39Z</time>
      </trkpt>
      <trkpt lat="45.2914" lon="0.37466">
        <ele>126</ele>
        <time>2016-09-20T13:28:54Z</time>
      </trkpt>
      <trkpt lat="45.29132" lon="0.37478">
        <ele>126</ele>
        <time>2016-09-20T13:29:09Z</time>
      </trkpt>
      <trkpt lat="45.29124" lon="0.37476">
        <ele>126</ele>
        <time>2016-09-20T13:29:35Z</time>
      </trkpt>
      <trkpt lat="45.29114" lon="0.37469">
        <ele>130</ele>
        <time>2016-09-20T13:29:49Z</time>
      </trkpt>
      <trkpt lat="45.29099" lon="0.37458">
        <ele>132</ele>
        <time>2016-09-20T13:30:03Z</time>
      </trkpt>
      <trkpt lat="45.29087" lon="0.37448">
        <ele>131</ele>
        <time>2016-09-20T13:30:17Z</time>
      </trkpt>
      <trkpt lat="45.2907" lon="0.37439">
        <ele>134</ele>
        <time>2016-09-20T13:30:31Z</time>
      </trkpt>
      <trkpt lat="45.2905" lon="0.37436">
        <ele>132</ele>
        <time>2016-09-20T13:30:45Z</time>
      </trkpt>
      <trkpt lat="45.2904" lon="0.37433">
        <ele>134</ele>
        <time>2016-09-20T13:30:59Z</time>
      </trkpt>
      <trkpt lat="45.29026" lon="0.37428">
        <ele>137</ele>
        <time>2016-09-20T13:31:13Z</time>
      </trkpt>
      <trkpt lat="45.29008" lon="0.37429">
        <ele>137</ele>
        <time>2016-09-20T13:31:28Z</time>
      </trkpt>
      <trkpt lat="45.28994" lon="0.37425">
        <ele>139</ele>
        <time>2016-09-20T13:31:42Z</time>
      </trkpt>
      <trkpt lat="45.28973" lon="0.37409">
        <ele>133</ele>
        <time>2016-09-20T13:31:57Z</time>
      </trkpt>
      <trkpt lat="45.28961" lon="0.37399">
        <ele>139</ele>
        <time>2016-09-20T13:32:11Z</time>
      </trkpt>
      <trkpt lat="45.28949" lon="0.37383">
        <ele>138</ele>
        <time>2016-09-20T13:32:26Z</time>
      </trkpt>
      <trkpt lat="45.2894" lon="0.37369">
        <ele>141</ele>
        <time>2016-09-20T13:32:40Z</time>
      </trkpt>
      <trkpt lat="45.28926" lon="0.37354">
        <ele>137</ele>
        <time>2016-09-20T13:32:55Z</time>
      </trkpt>
      <trkpt lat="45.28916" lon="0.37334">
        <ele>134</ele>
        <time>2016-09-20T13:33:10Z</time>
      </trkpt>
      <trkpt lat="45.28907" lon="0.37315">
        <ele>137</ele>
        <time>2016-09-20T13:33:24Z</time>
      </trkpt>
      <trkpt lat="45.28892" lon="0.37297">
        <ele>131</ele>
        <time>2016-09-20T13:33:39Z</time>
      </trkpt>
      <trkpt lat="45.28877" lon="0.3728">
        <ele>130</ele>
        <time>2016-09-20T13:33:54Z</time>
      </trkpt>
      <trkpt lat="45.28869" lon="0.37268">
        <ele>135</ele>
        <time>2016-09-20T13:34:09Z</time>
      </trkpt>
      <trkpt lat="45.28864" lon="0.3725">
        <ele>141</ele>
        <time>2016-09-20T13:34:23Z</time>
      </trkpt>
      <trkpt lat="45.2886" lon="0.37232">
        <ele>127</ele>
        <time>2016-09-20T13:34:38Z</time>
      </trkpt>
      <trkpt lat="45.28862" lon="0.37221">
        <ele>129</ele>
        <time>2016-09-20T13:40:37Z</time>
      </trkpt>
      <trkpt lat="45.28868" lon="0.37209">
        <ele>137</ele>
        <time>2016-09-20T13:40:51Z</time>
      </trkpt>
      <trkpt lat="45.28873" lon="0.37189">
        <ele>137</ele>
        <time>2016-09-20T13:41:06Z</time>
      </trkpt>
      <trkpt lat="45.28878" lon="0.37166">
        <ele>137</ele>
        <time>2016-09-20T13:41:21Z</time>
      </trkpt>
      <trkpt lat="45.28884" lon="0.37145">
        <ele>139</ele>
        <time>2016-09-20T13:41:35Z</time>
      </trkpt>
      <trkpt lat="45.28891" lon="0.37122">
        <ele>141</ele>
        <time>2016-09-20T13:41:50Z</time>
      </trkpt>
      <trkpt lat="45.28897" lon="0.37096">
        <ele>141</ele>
        <time>2016-09-20T13:42:04Z</time>
      </trkpt>
      <trkpt lat="45.28904" lon="0.37073">
        <ele>141</ele>
        <time>2016-09-20T13:42:18Z</time>
      </trkpt>
      <trkpt lat="45.28914" lon="0.37055">
        <ele>143</ele>
        <time>2016-09-20T13:42:32Z</time>
      </trkpt>
      <trkpt lat="45.28924" lon="0.3704">
        <ele>142</ele>
        <time>2016-09-20T13:42:47Z</time>
      </trkpt>
      <trkpt lat="45.28937" lon="0.37022">
        <ele>143</ele>
        <time>2016-09-20T13:43:01Z</time>
      </trkpt>
      <trkpt lat="45.28948" lon="0.37005">
        <ele>144</ele>
        <time>2016-09-20T13:43:15Z</time>
      </trkpt>
      <trkpt lat="45.28956" lon="0.36984">
        <ele>142</ele>
        <time>2016-09-20T13:43:29Z</time>
      </trkpt>
      <trkpt lat="45.28957" lon="0.36961">
        <ele>144</ele>
        <time>2016-09-20T13:43:44Z</time>
      </trkpt>
      <trkpt lat="45.2896" lon="0.36938">
        <ele>146</ele>
        <time>2016-09-20T13:43:57Z</time>
      </trkpt>
      <trkpt lat="45.2896" lon="0.36915">
        <ele>143</ele>
        <time>2016-09-20T13:44:11Z</time>
      </trkpt>
      <trkpt lat="45.2896" lon="0.36892">
        <ele>143</ele>
        <time>2016-09-20T13:44:26Z</time>
      </trkpt>
      <trkpt lat="45.28962" lon="0.36867">
        <ele>143</ele>
        <time>2016-09-20T13:44:41Z</time>
      </trkpt>
      <trkpt lat="45.28966" lon="0.36841">
        <ele>146</ele>
        <time>2016-09-20T13:44:55Z</time>
      </trkpt>
      <trkpt lat="45.28969" lon="0.36818">
        <ele>146</ele>
        <time>2016-09-20T13:45:10Z</time>
      </trkpt>
      <trkpt lat="45.28973" lon="0.36795">
        <ele>146</ele>
        <time>2016-09-20T13:45:24Z</time>
      </trkpt>
      <trkpt lat="45.28979" lon="0.36772">
        <ele>146</ele>
        <time>2016-09-20T13:45:38Z</time>
      </trkpt>
      <trkpt lat="45.28986" lon="0.36753">
        <ele>145</ele>
        <time>2016-09-20T13:45:51Z</time>
      </trkpt>
      <trkpt lat="45.28996" lon="0.36728">
        <ele>147</ele>
        <time>2016-09-20T13:46:06Z</time>
      </trkpt>
      <trkpt lat="45.29003" lon="0.36704">
        <ele>147</ele>
        <time>2016-09-20T13:46:20Z</time>
      </trkpt>
      <trkpt lat="45.29009" lon="0.36683">
        <ele>148</ele>
        <time>2016-09-20T13:46:34Z</time>
      </trkpt>
      <trkpt lat="45.29015" lon="0.36663">
        <ele>150</ele>
        <time>2016-09-20T13:46:48Z</time>
      </trkpt>
      <trkpt lat="45.29021" lon="0.3664">
        <ele>150</ele>
        <time>2016-09-20T13:47:02Z</time>
      </trkpt>
      <trkpt lat="45.29026" lon="0.36615">
        <ele>152</ele>
        <time>2016-09-20T13:47:16Z</time>
      </trkpt>
      <trkpt lat="45.29027" lon="0.36586">
        <ele>150</ele>
        <time>2016-09-20T13:47:31Z</time>
      </trkpt>
      <trkpt lat="45.29015" lon="0.36568">
        <ele>147</ele>
        <time>2016-09-20T13:47:46Z</time>
      </trkpt>
      <trkpt lat="45.28998" lon="0.36557">
        <ele>145</ele>
        <time>2016-09-20T13:48:00Z</time>
      </trkpt>
      <trkpt lat="45.28983" lon="0.36549">
        <ele>141</ele>
        <time>2016-09-20T13:48:15Z</time>
      </trkpt>
      <trkpt lat="45.28967" lon="0.36539">
        <ele>140</ele>
        <time>2016-09-20T13:48:30Z</time>
      </trkpt>
      <trkpt lat="45.2895" lon="0.3653">
        <ele>134</ele>
        <time>2016-09-20T13:48:44Z</time>
      </trkpt>
      <trkpt lat="45.28937" lon="0.36521">
        <ele>133</ele>
        <time>2016-09-20T13:48:59Z</time>
      </trkpt>
      <trkpt lat="45.28938" lon="0.36509">
        <ele>132</ele>
        <time>2016-09-20T13:49:18Z</time>
      </trkpt>
      <trkpt lat="45.2893" lon="0.3651">
        <ele>130</ele>
        <time>2016-09-20T13:49:48Z</time>
      </trkpt>
      <trkpt lat="45.28928" lon="0.36498">
        <ele>139</ele>
        <time>2016-09-20T13:51:37Z</time>
      </trkpt>
      <trkpt lat="45.2893" lon="0.36473">
        <ele>134</ele>
        <time>2016-09-20T13:51:51Z</time>
      </trkpt>
      <trkpt lat="45.28934" lon="0.36453">
        <ele>137</ele>
        <time>2016-09-20T13:52:05Z</time>
      </trkpt>
      <trkpt lat="45.28932" lon="0.36427">
        <ele>134</ele>
        <time>2016-09-20T13:52:20Z</time>
      </trkpt>
      <trkpt lat="45.28929" lon="0.364">
        <ele>131</ele>
        <time>2016-09-20T13:52:35Z</time>
      </trkpt>
      <trkpt lat="45.28922" lon="0.36378">
        <ele>132</ele>
        <time>2016-09-20T13:52:49Z</time>
      </trkpt>
      <trkpt lat="45.28914" lon="0.36355">
        <ele>129</ele>
        <time>2016-09-20T13:53:03Z</time>
      </trkpt>
      <trkpt lat="45.28904" lon="0.36336">
        <ele>130</ele>
        <time>2016-09-20T13:53:17Z</time>
      </trkpt>
      <trkpt lat="45.2889" lon="0.3632">
        <ele>129</ele>
        <time>2016-09-20T13:53:31Z</time>
      </trkpt>
      <trkpt lat="45.28878" lon="0.36306">
        <ele>126</ele>
        <time>2016-09-20T13:53:46Z</time>
      </trkpt>
      <trkpt lat="45.28865" lon="0.36295">
        <ele>126</ele>
        <time>2016-09-20T13:54:01Z</time>
      </trkpt>
      <trkpt lat="45.28852" lon="0.36283">
        <ele>126</ele>
        <time>2016-09-20T13:54:15Z</time>
      </trkpt>
      <trkpt lat="45.28836" lon="0.36266">
        <ele>131</ele>
        <time>2016-09-20T13:54:29Z</time>
      </trkpt>
      <trkpt lat="45.28821" lon="0.36249">
        <ele>133</ele>
        <time>2016-09-20T13:54:43Z</time>
      </trkpt>
      <trkpt lat="45.28808" lon="0.36232">
        <ele>133</ele>
        <time>2016-09-20T13:54:57Z</time>
      </trkpt>
      <trkpt lat="45.28797" lon="0.36208">
        <ele>134</ele>
        <time>2016-09-20T13:55:12Z</time>
      </trkpt>
      <trkpt lat="45.28787" lon="0.36178">
        <ele>130</ele>
        <time>2016-09-20T13:55:26Z</time>
      </trkpt>
      <trkpt lat="45.28782" lon="0.36151">
        <ele>133</ele>
        <time>2016-09-20T13:55:40Z</time>
      </trkpt>
      <trkpt lat="45.28774" lon="0.36124">
        <ele>138</ele>
        <time>2016-09-20T13:55:55Z</time>
      </trkpt>
      <trkpt lat="45.28771" lon="0.36105">
        <ele>140</ele>
        <time>2016-09-20T13:56:09Z</time>
      </trkpt>
      <trkpt lat="45.28761" lon="0.36083">
        <ele>142</ele>
        <time>2016-09-20T13:56:23Z</time>
      </trkpt>
      <trkpt lat="45.28754" lon="0.3606">
        <ele>138</ele>
        <time>2016-09-20T13:56:38Z</time>
      </trkpt>
      <trkpt lat="45.28747" lon="0.36045">
        <ele>140</ele>
        <time>2016-09-20T13:56:52Z</time>
      </trkpt>
      <trkpt lat="45.2874" lon="0.36031">
        <ele>148</ele>
        <time>2016-09-20T13:57:06Z</time>
      </trkpt>
      <trkpt lat="45.28729" lon="0.36014">
        <ele>151</ele>
        <time>2016-09-20T13:57:21Z</time>
      </trkpt>
      <trkpt lat="45.28717" lon="0.35993">
        <ele>150</ele>
        <time>2016-09-20T13:57:35Z</time>
      </trkpt>
      <trkpt lat="45.28705" lon="0.35965">
        <ele>145</ele>
        <time>2016-09-20T13:57:50Z</time>
      </trkpt>
      <trkpt lat="45.28697" lon="0.3594">
        <ele>140</ele>
        <time>2016-09-20T13:58:04Z</time>
      </trkpt>
      <trkpt lat="45.28689" lon="0.35921">
        <ele>145</ele>
        <time>2016-09-20T13:58:18Z</time>
      </trkpt>
      <trkpt lat="45.2868" lon="0.35898">
        <ele>148</ele>
        <time>2016-09-20T13:58:33Z</time>
      </trkpt>
      <trkpt lat="45.2866" lon="0.35882">
        <ele>138</ele>
        <time>2016-09-20T13:58:47Z</time>
      </trkpt>
      <trkpt lat="45.28642" lon="0.35888">
        <ele>132</ele>
        <time>2016-09-20T13:59:01Z</time>
      </trkpt>
      <trkpt lat="45.28636" lon="0.35896">
        <ele>135</ele>
        <time>2016-09-20T13:59:19Z</time>
      </trkpt>
      <trkpt lat="45.28616" lon="0.35906">
        <ele>138</ele>
        <time>2016-09-20T13:59:34Z</time>
      </trkpt>
      <trkpt lat="45.286" lon="0.35918">
        <ele>140</ele>
        <time>2016-09-20T13:59:48Z</time>
      </trkpt>
      <trkpt lat="45.28586" lon="0.35939">
        <ele>136</ele>
        <time>2016-09-20T14:00:02Z</time>
      </trkpt>
      <trkpt lat="45.2857" lon="0.35951">
        <ele>136</ele>
        <time>2016-09-20T14:00:17Z</time>
      </trkpt>
      <trkpt lat="45.28556" lon="0.35966">
        <ele>134</ele>
        <time>2016-09-20T14:00:32Z</time>
      </trkpt>
      <trkpt lat="45.2854" lon="0.35979">
        <ele>136</ele>
        <time>2016-09-20T14:00:46Z</time>
      </trkpt>
      <trkpt lat="45.28524" lon="0.35992">
        <ele>138</ele>
        <time>2016-09-20T14:01:01Z</time>
      </trkpt>
      <trkpt lat="45.28508" lon="0.36004">
        <ele>139</ele>
        <time>2016-09-20T14:01:16Z</time>
      </trkpt>
      <trkpt lat="45.28492" lon="0.36013">
        <ele>142</ele>
        <time>2016-09-20T14:01:30Z</time>
      </trkpt>
      <trkpt lat="45.28476" lon="0.3603">
        <ele>142</ele>
        <time>2016-09-20T14:01:45Z</time>
      </trkpt>
      <trkpt lat="45.2846" lon="0.36043">
        <ele>142</ele>
        <time>2016-09-20T14:01:59Z</time>
      </trkpt>
      <trkpt lat="45.28443" lon="0.36058">
        <ele>142</ele>
        <time>2016-09-20T14:02:14Z</time>
      </trkpt>
      <trkpt lat="45.28425" lon="0.36073">
        <ele>141</ele>
        <time>2016-09-20T14:02:29Z</time>
      </trkpt>
      <trkpt lat="45.28409" lon="0.36088">
        <ele>141</ele>
        <time>2016-09-20T14:02:43Z</time>
      </trkpt>
      <trkpt lat="45.28393" lon="0.36102">
        <ele>140</ele>
        <time>2016-09-20T14:02:57Z</time>
      </trkpt>
      <trkpt lat="45.28379" lon="0.36115">
        <ele>140</ele>
        <time>2016-09-20T14:03:11Z</time>
      </trkpt>
      <trkpt lat="45.28365" lon="0.36131">
        <ele>140</ele>
        <time>2016-09-20T14:03:26Z</time>
      </trkpt>
      <trkpt lat="45.28351" lon="0.36144">
        <ele>142</ele>
        <time>2016-09-20T14:03:40Z</time>
      </trkpt>
      <trkpt lat="45.28336" lon="0.36158">
        <ele>142</ele>
        <time>2016-09-20T14:03:55Z</time>
      </trkpt>
      <trkpt lat="45.28321" lon="0.3617">
        <ele>142</ele>
        <time>2016-09-20T14:04:09Z</time>
      </trkpt>
      <trkpt lat="45.28307" lon="0.3618">
        <ele>143</ele>
        <time>2016-09-20T14:04:23Z</time>
      </trkpt>
      <trkpt lat="45.28292" lon="0.36193">
        <ele>145</ele>
        <time>2016-09-20T14:04:38Z</time>
      </trkpt>
      <trkpt lat="45.28276" lon="0.36206">
        <ele>147</ele>
        <time>2016-09-20T14:04:53Z</time>
      </trkpt>
      <trkpt lat="45.28261" lon="0.3622">
        <ele>147</ele>
        <time>2016-09-20T14:05:07Z</time>
      </trkpt>
      <trkpt lat="45.28246" lon="0.36233">
        <ele>148</ele>
        <time>2016-09-20T14:05:21Z</time>
      </trkpt>
      <trkpt lat="45.28234" lon="0.36243">
        <ele>147</ele>
        <time>2016-09-20T14:05:36Z</time>
      </trkpt>
      <trkpt lat="45.28212" lon="0.36251">
        <ele>146</ele>
        <time>2016-09-20T14:05:51Z</time>
      </trkpt>
      <trkpt lat="45.28194" lon="0.36263">
        <ele>145</ele>
        <time>2016-09-20T14:06:06Z</time>
      </trkpt>
      <trkpt lat="45.28179" lon="0.36275">
        <ele>144</ele>
        <time>2016-09-20T14:06:21Z</time>
      </trkpt>
      <trkpt lat="45.28164" lon="0.36283">
        <ele>144</ele>
        <time>2016-09-20T14:06:35Z</time>
      </trkpt>
      <trkpt lat="45.28148" lon="0.36297">
        <ele>142</ele>
        <time>2016-09-20T14:06:49Z</time>
      </trkpt>
      <trkpt lat="45.28132" lon="0.36306">
        <ele>142</ele>
        <time>2016-09-20T14:07:03Z</time>
      </trkpt>
      <trkpt lat="45.28114" lon="0.36319">
        <ele>142</ele>
        <time>2016-09-20T14:07:17Z</time>
      </trkpt>
      <trkpt lat="45.28098" lon="0.36328">
        <ele>142</ele>
        <time>2016-09-20T14:07:31Z</time>
      </trkpt>
      <trkpt lat="45.28081" lon="0.36338">
        <ele>140</ele>
        <time>2016-09-20T14:07:45Z</time>
      </trkpt>
      <trkpt lat="45.28064" lon="0.36346">
        <ele>139</ele>
        <time>2016-09-20T14:07:59Z</time>
      </trkpt>
      <trkpt lat="45.28048" lon="0.36353">
        <ele>137</ele>
        <time>2016-09-20T14:08:13Z</time>
      </trkpt>
      <trkpt lat="45.28032" lon="0.36361">
        <ele>138</ele>
        <time>2016-09-20T14:08:27Z</time>
      </trkpt>
      <trkpt lat="45.28017" lon="0.36365">
        <ele>143</ele>
        <time>2016-09-20T14:08:42Z</time>
      </trkpt>
      <trkpt lat="45.27998" lon="0.36373">
        <ele>139</ele>
        <time>2016-09-20T14:08:56Z</time>
      </trkpt>
      <trkpt lat="45.27977" lon="0.36377">
        <ele>137</ele>
        <time>2016-09-20T14:09:11Z</time>
      </trkpt>
      <trkpt lat="45.27959" lon="0.36378">
        <ele>136</ele>
        <time>2016-09-20T14:09:25Z</time>
      </trkpt>
      <trkpt lat="45.27948" lon="0.36399">
        <ele>135</ele>
        <time>2016-09-20T14:09:39Z</time>
      </trkpt>
      <trkpt lat="45.27945" lon="0.36421">
        <ele>135</ele>
        <time>2016-09-20T14:09:53Z</time>
      </trkpt>
      <trkpt lat="45.27946" lon="0.36442">
        <ele>136</ele>
        <time>2016-09-20T14:10:07Z</time>
      </trkpt>
      <trkpt lat="45.27946" lon="0.36463">
        <ele>135</ele>
        <time>2016-09-20T14:10:21Z</time>
      </trkpt>
      <trkpt lat="45.27944" lon="0.36479">
        <ele>142</ele>
        <time>2016-09-20T14:10:35Z</time>
      </trkpt>
      <trkpt lat="45.27942" lon="0.36506">
        <ele>137</ele>
        <time>2016-09-20T14:10:50Z</time>
      </trkpt>
      <trkpt lat="45.27942" lon="0.36533">
        <ele>135</ele>
        <time>2016-09-20T14:11:04Z</time>
      </trkpt>
      <trkpt lat="45.27944" lon="0.36557">
        <ele>140</ele>
        <time>2016-09-20T14:11:19Z</time>
      </trkpt>
      <trkpt lat="45.27943" lon="0.36584">
        <ele>135</ele>
        <time>2016-09-20T14:11:33Z</time>
      </trkpt>
      <trkpt lat="45.27936" lon="0.36594">
        <ele>134</ele>
        <time>2016-09-20T14:11:48Z</time>
      </trkpt>
      <trkpt lat="45.27942" lon="0.36602">
        <ele>132</ele>
        <time>2016-09-20T14:12:31Z</time>
      </trkpt>
      <trkpt lat="45.27942" lon="0.36622">
        <ele>133</ele>
        <time>2016-09-20T14:12:45Z</time>
      </trkpt>
      <trkpt lat="45.2794" lon="0.36646">
        <ele>131</ele>
        <time>2016-09-20T14:12:59Z</time>
      </trkpt>
      <trkpt lat="45.27939" lon="0.36678">
        <ele>128</ele>
        <time>2016-09-20T14:13:13Z</time>
      </trkpt>
      <trkpt lat="45.27927" lon="0.36693">
        <ele>128</ele>
        <time>2016-09-20T14:13:28Z</time>
      </trkpt>
      <trkpt lat="45.27912" lon="0.36688">
        <ele>136</ele>
        <time>2016-09-20T14:13:42Z</time>
      </trkpt>
      <trkpt lat="45.27887" lon="0.3669">
        <ele>135</ele>
        <time>2016-09-20T14:13:56Z</time>
      </trkpt>
      <trkpt lat="45.27859" lon="0.36682">
        <ele>128</ele>
        <time>2016-09-20T14:14:11Z</time>
      </trkpt>
      <trkpt lat="45.27841" lon="0.36689">
        <ele>123</ele>
        <time>2016-09-20T14:14:25Z</time>
      </trkpt>
      <trkpt lat="45.27815" lon="0.36696">
        <ele>120</ele>
        <time>2016-09-20T14:14:40Z</time>
      </trkpt>
      <trkpt lat="45.27795" lon="0.36707">
        <ele>118</ele>
        <time>2016-09-20T14:14:54Z</time>
      </trkpt>
      <trkpt lat="45.2778" lon="0.36736">
        <ele>113</ele>
        <time>2016-09-20T14:15:09Z</time>
      </trkpt>
      <trkpt lat="45.2778" lon="0.36749">
        <ele>113</ele>
        <time>2016-09-20T14:15:31Z</time>
      </trkpt>
      <trkpt lat="45.27773" lon="0.36749">
        <ele>117</ele>
        <time>2016-09-20T14:17:05Z</time>
      </trkpt>
      <trkpt lat="45.27759" lon="0.36743">
        <ele>115</ele>
        <time>2016-09-20T14:17:20Z</time>
      </trkpt>
      <trkpt lat="45.27748" lon="0.36738">
        <ele>114</ele>
        <time>2016-09-20T14:17:34Z</time>
      </trkpt>
      <trkpt lat="45.27734" lon="0.36732">
        <ele>114</ele>
        <time>2016-09-20T14:17:49Z</time>
      </trkpt>
      <trkpt lat="45.27719" lon="0.36724">
        <ele>113</ele>
        <time>2016-09-20T14:18:03Z</time>
      </trkpt>
      <trkpt lat="45.277" lon="0.36714">
        <ele>111</ele>
        <time>2016-09-20T14:18:18Z</time>
      </trkpt>
      <trkpt lat="45.27685" lon="0.36708">
        <ele>111</ele>
        <time>2016-09-20T14:18:32Z</time>
      </trkpt>
      <trkpt lat="45.27669" lon="0.367">
        <ele>112</ele>
        <time>2016-09-20T14:18:47Z</time>
      </trkpt>
      <trkpt lat="45.27654" lon="0.36692">
        <ele>111</ele>
        <time>2016-09-20T14:19:01Z</time>
      </trkpt>
      <trkpt lat="45.27637" lon="0.36684">
        <ele>112</ele>
        <time>2016-09-20T14:19:16Z</time>
      </trkpt>
      <trkpt lat="45.27623" lon="0.36676">
        <ele>112</ele>
        <time>2016-09-20T14:19:31Z</time>
      </trkpt>
      <trkpt lat="45.2761" lon="0.36667">
        <ele>110</ele>
        <time>2016-09-20T14:19:45Z</time>
      </trkpt>
      <trkpt lat="45.27602" lon="0.36645">
        <ele>114</ele>
        <time>2016-09-20T14:19:59Z</time>
      </trkpt>
      <trkpt lat="45.27594" lon="0.36624">
        <ele>116</ele>
        <time>2016-09-20T14:20:13Z</time>
      </trkpt>
      <trkpt lat="45.27587" lon="0.36606">
        <ele>117</ele>
        <time>2016-09-20T14:20:27Z</time>
      </trkpt>
      <trkpt lat="45.27579" lon="0.36587">
        <ele>114</ele>
        <time>2016-09-20T14:20:41Z</time>
      </trkpt>
      <trkpt lat="45.27563" lon="0.36571">
        <ele>112</ele>
        <time>2016-09-20T14:20:56Z</time>
      </trkpt>
      <trkpt lat="45.2754" lon="0.36552">
        <ele>115</ele>
        <time>2016-09-20T14:21:11Z</time>
      </trkpt>
      <trkpt lat="45.27524" lon="0.36536">
        <ele>116</ele>
        <time>2016-09-20T14:21:25Z</time>
      </trkpt>
      <trkpt lat="45.27507" lon="0.36521">
        <ele>116</ele>
        <time>2016-09-20T14:21:40Z</time>
      </trkpt>
      <trkpt lat="45.27488" lon="0.36508">
        <ele>116</ele>
        <time>2016-09-20T14:21:55Z</time>
      </trkpt>
      <trkpt lat="45.27473" lon="0.36498">
        <ele>118</ele>
        <time>2016-09-20T14:22:09Z</time>
      </trkpt>
      <trkpt lat="45.27456" lon="0.36493">
        <ele>117</ele>
        <time>2016-09-20T14:22:24Z</time>
      </trkpt>
      <trkpt lat="45.27437" lon="0.36488">
        <ele>114</ele>
        <time>2016-09-20T14:22:38Z</time>
      </trkpt>
      <trkpt lat="45.2742" lon="0.36479">
        <ele>114</ele>
        <time>2016-09-20T14:22:52Z</time>
      </trkpt>
      <trkpt lat="45.27402" lon="0.36472">
        <ele>111</ele>
        <time>2016-09-20T14:23:06Z</time>
      </trkpt>
      <trkpt lat="45.27384" lon="0.36464">
        <ele>112</ele>
        <time>2016-09-20T14:23:20Z</time>
      </trkpt>
      <trkpt lat="45.27366" lon="0.3646">
        <ele>111</ele>
        <time>2016-09-20T14:23:35Z</time>
      </trkpt>
      <trkpt lat="45.27346" lon="0.36454">
        <ele>108</ele>
        <time>2016-09-20T14:23:49Z</time>
      </trkpt>
      <trkpt lat="45.27329" lon="0.36448">
        <ele>105</ele>
        <time>2016-09-20T14:24:03Z</time>
      </trkpt>
      <trkpt lat="45.27313" lon="0.36443">
        <ele>108</ele>
        <time>2016-09-20T14:24:18Z</time>
      </trkpt>
      <trkpt lat="45.27295" lon="0.3644">
        <ele>105</ele>
        <time>2016-09-20T14:24:32Z</time>
      </trkpt>
      <trkpt lat="45.27275" lon="0.36434">
        <ele>105</ele>
        <time>2016-09-20T14:24:47Z</time>
      </trkpt>
      <trkpt lat="45.27257" lon="0.36428">
        <ele>108</ele>
        <time>2016-09-20T14:25:01Z</time>
      </trkpt>
      <trkpt lat="45.2724" lon="0.36421">
        <ele>109</ele>
        <time>2016-09-20T14:25:16Z</time>
      </trkpt>
      <trkpt lat="45.27223" lon="0.36411">
        <ele>112</ele>
        <time>2016-09-20T14:25:30Z</time>
      </trkpt>
      <trkpt lat="45.27206" lon="0.36405">
        <ele>113</ele>
        <time>2016-09-20T14:25:44Z</time>
      </trkpt>
      <trkpt lat="45.27195" lon="0.3641">
        <ele>111</ele>
        <time>2016-09-20T14:25:58Z</time>
      </trkpt>
      <trkpt lat="45.27177" lon="0.36403">
        <ele>114</ele>
        <time>2016-09-20T14:26:13Z</time>
      </trkpt>
      <trkpt lat="45.2716" lon="0.36393">
        <ele>116</ele>
        <time>2016-09-20T14:26:27Z</time>
      </trkpt>
      <trkpt lat="45.27142" lon="0.36391">
        <ele>118</ele>
        <time>2016-09-20T14:26:41Z</time>
      </trkpt>
      <trkpt lat="45.27127" lon="0.36383">
        <ele>122</ele>
        <time>2016-09-20T14:26:55Z</time>
      </trkpt>
      <trkpt lat="45.27108" lon="0.36376">
        <ele>119</ele>
        <time>2016-09-20T14:27:09Z</time>
      </trkpt>
      <trkpt lat="45.27092" lon="0.36365">
        <ele>120</ele>
        <time>2016-09-20T14:27:23Z</time>
      </trkpt>
      <trkpt lat="45.2708" lon="0.36357">
        <ele>122</ele>
        <time>2016-09-20T14:27:37Z</time>
      </trkpt>
      <trkpt lat="45.27069" lon="0.36347">
        <ele>120</ele>
        <time>2016-09-20T14:27:51Z</time>
      </trkpt>
      <trkpt lat="45.27065" lon="0.36336">
        <ele>129</ele>
        <time>2016-09-20T14:28:07Z</time>
      </trkpt>
      <trkpt lat="45.27051" lon="0.36326">
        <ele>125</ele>
        <time>2016-09-20T14:28:22Z</time>
      </trkpt>
      <trkpt lat="45.27029" lon="0.36318">
        <ele>124</ele>
        <time>2016-09-20T14:28:36Z</time>
      </trkpt>
      <trkpt lat="45.27013" lon="0.36314">
        <ele>122</ele>
        <time>2016-09-20T14:28:50Z</time>
      </trkpt>
      <trkpt lat="45.26994" lon="0.36311">
        <ele>118</ele>
        <time>2016-09-20T14:29:04Z</time>
      </trkpt>
      <trkpt lat="45.26982" lon="0.36304">
        <ele>118</ele>
        <time>2016-09-20T14:29:19Z</time>
      </trkpt>
      <trkpt lat="45.26971" lon="0.36299">
        <ele>124</ele>
        <time>2016-09-20T14:29:34Z</time>
      </trkpt>
      <trkpt lat="45.26958" lon="0.36301">
        <ele>125</ele>
        <time>2016-09-20T14:29:48Z</time>
      </trkpt>
      <trkpt lat="45.26942" lon="0.36306">
        <ele>118</ele>
        <time>2016-09-20T14:30:03Z</time>
      </trkpt>
      <trkpt lat="45.26932" lon="0.36303">
        <ele>114</ele>
        <time>2016-09-20T14:30:17Z</time>
      </trkpt>
      <trkpt lat="45.26914" lon="0.36299">
        <ele>112</ele>
        <time>2016-09-20T14:30:32Z</time>
      </trkpt>
      <trkpt lat="45.26902" lon="0.36292">
        <ele>117</ele>
        <time>2016-09-20T14:30:46Z</time>
      </trkpt>
      <trkpt lat="45.26883" lon="0.36291">
        <ele>111</ele>
        <time>2016-09-20T14:31:01Z</time>
      </trkpt>
      <trkpt lat="45.26868" lon="0.36288">
        <ele>112</ele>
        <time>2016-09-20T14:31:15Z</time>
      </trkpt>
      <trkpt lat="45.26856" lon="0.36282">
        <ele>111</ele>
        <time>2016-09-20T14:31:29Z</time>
      </trkpt>
      <trkpt lat="45.26844" lon="0.36283">
        <ele>107</ele>
        <time>2016-09-20T14:31:43Z</time>
      </trkpt>
      <trkpt lat="45.26841" lon="0.36268">
        <ele>104</ele>
        <time>2016-09-20T14:31:58Z</time>
      </trkpt>
      <trkpt lat="45.26838" lon="0.36247">
        <ele>101</ele>
        <time>2016-09-20T14:32:12Z</time>
      </trkpt>
      <trkpt lat="45.26829" lon="0.36239">
        <ele>101</ele>
        <time>2016-09-20T14:32:27Z</time>
      </trkpt>
      <trkpt lat="45.26821" lon="0.36234">
        <ele>101</ele>
        <time>2016-09-20T14:32:42Z</time>
      </trkpt>
      <trkpt lat="45.26806" lon="0.36224">
        <ele>106</ele>
        <time>2016-09-20T14:32:56Z</time>
      </trkpt>
      <trkpt lat="45.26786" lon="0.36216">
        <ele>104</ele>
        <time>2016-09-20T14:33:11Z</time>
      </trkpt>
      <trkpt lat="45.2677" lon="0.36214">
        <ele>101</ele>
        <time>2016-09-20T14:33:25Z</time>
      </trkpt>
      <trkpt lat="45.26756" lon="0.36209">
        <ele>101</ele>
        <time>2016-09-20T14:33:39Z</time>
      </trkpt>
      <trkpt lat="45.26743" lon="0.36204">
        <ele>103</ele>
        <time>2016-09-20T14:33:54Z</time>
      </trkpt>
      <trkpt lat="45.26727" lon="0.36206">
        <ele>97</ele>
        <time>2016-09-20T14:34:08Z</time>
      </trkpt>
      <trkpt lat="45.26714" lon="0.36203">
        <ele>99</ele>
        <time>2016-09-20T14:34:22Z</time>
      </trkpt>
      <trkpt lat="45.26703" lon="0.362">
        <ele>99</ele>
        <time>2016-09-20T14:34:37Z</time>
      </trkpt>
      <trkpt lat="45.26685" lon="0.36191">
        <ele>98</ele>
        <time>2016-09-20T14:34:51Z</time>
      </trkpt>
      <trkpt lat="45.26667" lon="0.36178">
        <ele>96</ele>
        <time>2016-09-20T14:35:06Z</time>
      </trkpt>
      <trkpt lat="45.26647" lon="0.36175">
        <ele>87</ele>
        <time>2016-09-20T14:35:21Z</time>
      </trkpt>
      <trkpt lat="45.2663" lon="0.36167">
        <ele>84</ele>
        <time>2016-09-20T14:35:36Z</time>
      </trkpt>
      <trkpt lat="45.26612" lon="0.36158">
        <ele>87</ele>
        <time>2016-09-20T14:35:50Z</time>
      </trkpt>
      <trkpt lat="45.26592" lon="0.36165">
        <ele>80</ele>
        <time>2016-09-20T14:36:04Z</time>
      </trkpt>
      <trkpt lat="45.26575" lon="0.36168">
        <ele>80</ele>
        <time>2016-09-20T14:36:18Z</time>
      </trkpt>
      <trkpt lat="45.26558" lon="0.3617">
        <ele>80</ele>
        <time>2016-09-20T14:36:33Z</time>
      </trkpt>
      <trkpt lat="45.2654" lon="0.3617">
        <ele>82</ele>
        <time>2016-09-20T14:36:48Z</time>
      </trkpt>
      <trkpt lat="45.26521" lon="0.36171">
        <ele>79</ele>
        <time>2016-09-20T14:37:02Z</time>
      </trkpt>
      <trkpt lat="45.26503" lon="0.36173">
        <ele>76</ele>
        <time>2016-09-20T14:37:17Z</time>
      </trkpt>
      <trkpt lat="45.26489" lon="0.3617">
        <ele>72</ele>
        <time>2016-09-20T14:37:31Z</time>
      </trkpt>
      <trkpt lat="45.26472" lon="0.36159">
        <ele>72</ele>
        <time>2016-09-20T14:37:46Z</time>
      </trkpt>
      <trkpt lat="45.26456" lon="0.36165">
        <ele>74</ele>
        <time>2016-09-20T14:38:00Z</time>
      </trkpt>
      <trkpt lat="45.2644" lon="0.36172">
        <ele>75</ele>
        <time>2016-09-20T14:38:14Z</time>
      </trkpt>
      <trkpt lat="45.26423" lon="0.36179">
        <ele>77</ele>
        <time>2016-09-20T14:38:28Z</time>
      </trkpt>
      <trkpt lat="45.26409" lon="0.3619">
        <ele>77</ele>
        <time>2016-09-20T14:38:43Z</time>
      </trkpt>
      <trkpt lat="45.26396" lon="0.36197">
        <ele>79</ele>
        <time>2016-09-20T14:38:57Z</time>
      </trkpt>
      <trkpt lat="45.26378" lon="0.36206">
        <ele>77</ele>
        <time>2016-09-20T14:39:11Z</time>
      </trkpt>
      <trkpt lat="45.26371" lon="0.36214">
        <ele>79</ele>
        <time>2016-09-20T14:39:25Z</time>
      </trkpt>
      <trkpt lat="45.26362" lon="0.36209">
        <ele>84</ele>
        <time>2016-09-20T14:39:39Z</time>
      </trkpt>
      <trkpt lat="45.26348" lon="0.3622">
        <ele>82</ele>
        <time>2016-09-20T14:39:53Z</time>
      </trkpt>
      <trkpt lat="45.26334" lon="0.36223">
        <ele>82</ele>
        <time>2016-09-20T14:40:08Z</time>
      </trkpt>
      <trkpt lat="45.26325" lon="0.36214">
        <ele>89</ele>
        <time>2016-09-20T14:40:22Z</time>
      </trkpt>
      <trkpt lat="45.2631" lon="0.36218">
        <ele>86</ele>
        <time>2016-09-20T14:40:36Z</time>
      </trkpt>
      <trkpt lat="45.26292" lon="0.36231">
        <ele>76</ele>
        <time>2016-09-20T14:40:50Z</time>
      </trkpt>
      <trkpt lat="45.26286" lon="0.36222">
        <ele>74</ele>
        <time>2016-09-20T14:41:04Z</time>
      </trkpt>
      <trkpt lat="45.26281" lon="0.362">
        <ele>76</ele>
        <time>2016-09-20T14:41:19Z</time>
      </trkpt>
      <trkpt lat="45.26268" lon="0.36177">
        <ele>73</ele>
        <time>2016-09-20T14:41:33Z</time>
      </trkpt>
      <trkpt lat="45.26259" lon="0.36154">
        <ele>73</ele>
        <time>2016-09-20T14:41:47Z</time>
      </trkpt>
      <trkpt lat="45.26244" lon="0.36138">
        <ele>71</ele>
        <time>2016-09-20T14:42:01Z</time>
      </trkpt>
      <trkpt lat="45.26233" lon="0.36123">
        <ele>65</ele>
        <time>2016-09-20T14:42:16Z</time>
      </trkpt>
      <trkpt lat="45.26228" lon="0.36112">
        <ele>63</ele>
        <time>2016-09-20T14:42:32Z</time>
      </trkpt>
      <trkpt lat="45.26223" lon="0.36097">
        <ele>66</ele>
        <time>2016-09-20T14:42:46Z</time>
      </trkpt>
      <trkpt lat="45.2622" lon="0.36077">
        <ele>67</ele>
        <time>2016-09-20T14:43:00Z</time>
      </trkpt>
      <trkpt lat="45.26211" lon="0.36051">
        <ele>66</ele>
        <time>2016-09-20T14:43:15Z</time>
      </trkpt>
      <trkpt lat="45.26207" lon="0.36028">
        <ele>66</ele>
        <time>2016-09-20T14:43:29Z</time>
      </trkpt>
      <trkpt lat="45.26187" lon="0.36013">
        <ele>63</ele>
        <time>2016-09-20T14:43:44Z</time>
      </trkpt>
      <trkpt lat="45.26177" lon="0.35996">
        <ele>64</ele>
        <time>2016-09-20T14:43:58Z</time>
      </trkpt>
      <trkpt lat="45.26163" lon="0.35978">
        <ele>64</ele>
        <time>2016-09-20T14:44:12Z</time>
      </trkpt>
      <trkpt lat="45.26151" lon="0.35959">
        <ele>64</ele>
        <time>2016-09-20T14:44:26Z</time>
      </trkpt>
      <trkpt lat="45.2614" lon="0.35938">
        <ele>63</ele>
        <time>2016-09-20T14:44:41Z</time>
      </trkpt>
      <trkpt lat="45.26126" lon="0.35919">
        <ele>64</ele>
        <time>2016-09-20T14:44:55Z</time>
      </trkpt>
      <trkpt lat="45.26116" lon="0.35901">
        <ele>65</ele>
        <time>2016-09-20T14:45:10Z</time>
      </trkpt>
      <trkpt lat="45.26102" lon="0.35889">
        <ele>70</ele>
        <time>2016-09-20T14:45:24Z</time>
      </trkpt>
      <trkpt lat="45.26084" lon="0.359">
        <ele>60</ele>
        <time>2016-09-20T14:45:39Z</time>
      </trkpt>
      <trkpt lat="45.26095" lon="0.35916">
        <ele>57</ele>
        <time>2016-09-20T14:45:54Z</time>
      </trkpt>
      <trkpt lat="45.26104" lon="0.35924">
        <ele>55</ele>
        <time>2016-09-20T14:46:08Z</time>
      </trkpt>
      <trkpt lat="45.26113" lon="0.35934">
        <ele>55</ele>
        <time>2016-09-20T14:46:23Z</time>
      </trkpt>
      <trkpt lat="45.26124" lon="0.35949">
        <ele>55</ele>
        <time>2016-09-20T14:46:37Z</time>
      </trkpt>
      <trkpt lat="45.2613" lon="0.35959">
        <ele>57</ele>
        <time>2016-09-20T14:47:21Z</time>
      </trkpt>
      <trkpt lat="45.26131" lon="0.35963">
        <ele>56</ele>
        <time>2016-09-20T14:47:39Z</time>
      </trkpt>
      <trkpt lat="45.26131" lon="0.35963">
        <ele>56</ele>
        <time>2016-09-20T14:47:39Z</time>
      </trkpt>
    </trkseg>
  </trk>
</gpx>